createdAt,value
2022-08-31T00:00:10.012Z,735.00
2022-08-31T00:00:19.726Z,727.00
2022-08-31T00:01:21.501Z,734.00
2022-08-31T00:02:21.708Z,728.00
2022-08-31T00:03:21.571Z,706.00
2022-08-31T00:04:23.342Z,733.00
2022-08-31T00:05:22.896Z,727.00
2022-08-31T00:06:24.127Z,725.00
2022-08-31T00:07:24.861Z,728.00
2022-08-31T00:08:25.806Z,772.00
2022-08-31T00:09:26.377Z,737.00
2022-08-31T00:10:32.245Z,713.00
2022-08-31T00:11:26.653Z,737.00
2022-08-31T00:12:28.243Z,747.00
2022-08-31T00:13:28.859Z,702.00
2022-08-31T00:14:28.818Z,732.00
2022-08-31T00:15:30.519Z,826.00
2022-08-31T00:16:31.203Z,778.00
2022-08-31T00:17:31.148Z,748.00
2022-08-31T00:18:32.854Z,685.00
2022-08-31T00:19:33.770Z,735.00
2022-08-31T00:19:42.451Z,715.00
2022-08-31T00:20:44.089Z,733.00
2022-08-31T00:21:44.902Z,722.00
2022-08-31T00:22:44.143Z,726.00
2022-08-31T00:23:45.735Z,698.00
2022-08-31T00:24:46.032Z,708.00
2022-08-31T00:25:46.582Z,725.00
2022-08-31T00:26:47.519Z,724.00
2022-08-31T00:27:47.678Z,817.00
2022-08-31T00:28:47.739Z,825.00
2022-08-31T00:29:48.131Z,749.00
2022-08-31T00:30:48.543Z,744.00
2022-08-31T00:31:49.287Z,825.00
2022-08-31T00:32:48.891Z,825.00
2022-08-31T00:33:49.481Z,824.00
2022-08-31T00:34:51.022Z,829.00
2022-08-31T00:35:50.722Z,828.00
2022-08-31T00:36:52.352Z,708.00
2022-08-31T00:37:52.894Z,701.00
2022-08-31T00:38:53.722Z,706.00
2022-08-31T00:39:54.392Z,747.00
2022-08-31T00:40:03.096Z,754.00
2022-08-31T00:41:03.553Z,745.00
2022-08-31T00:42:04.093Z,708.00
2022-08-31T00:43:05.036Z,833.00
2022-08-31T00:44:05.549Z,834.00
2022-08-31T00:45:07.284Z,834.00
2022-08-31T00:46:08.167Z,831.00
2022-08-31T00:47:07.672Z,829.00
2022-08-31T00:48:09.362Z,825.00
2022-08-31T00:49:10.166Z,814.00
2022-08-31T00:50:10.831Z,826.00
2022-08-31T00:51:11.707Z,825.00
2022-08-31T00:52:11.069Z,824.00
2022-08-31T00:53:12.655Z,824.00
2022-08-31T00:54:12.022Z,824.00
2022-08-31T00:55:13.796Z,824.00
2022-08-31T00:56:14.223Z,826.00
2022-08-31T00:57:15.180Z,829.00
2022-08-31T00:58:15.315Z,826.00
2022-08-31T00:59:15.651Z,826.00
2022-08-31T01:00:15.961Z,826.00
2022-08-31T01:01:16.885Z,824.00
2022-08-31T01:02:16.405Z,819.00
2022-08-31T01:02:25.116Z,821.00
2022-08-31T01:03:25.718Z,832.00
2022-08-31T01:04:27.237Z,830.00
2022-08-31T01:05:27.649Z,829.00
2022-08-31T01:06:28.612Z,831.00
2022-08-31T01:07:29.260Z,832.00
2022-08-31T01:08:30.982Z,832.00
2022-08-31T01:09:29.697Z,830.00
2022-08-31T01:10:31.323Z,830.00
2022-08-31T01:11:31.626Z,829.00
2022-08-31T01:12:31.765Z,826.00
2022-08-31T01:13:32.596Z,826.00
2022-08-31T01:14:33.568Z,826.00
2022-08-31T01:15:34.365Z,825.00
2022-08-31T01:16:35.104Z,816.00
2022-08-31T01:17:34.646Z,825.00
2022-08-31T01:18:36.620Z,826.00
2022-08-31T01:19:37.417Z,826.00
2022-08-31T01:20:38.012Z,826.00
2022-08-31T01:20:48.703Z,817.00
2022-08-31T01:21:47.012Z,825.00
2022-08-31T01:22:47.593Z,825.00
2022-08-31T01:23:49.285Z,825.00
2022-08-31T01:24:49.375Z,826.00
2022-08-31T01:25:50.316Z,829.00
2022-08-31T01:26:55.429Z,819.00
2022-08-31T01:27:50.373Z,834.00
2022-08-31T01:28:52.048Z,838.00
2022-08-31T01:29:51.727Z,838.00
2022-08-31T01:30:53.055Z,840.00
2022-08-31T01:31:53.846Z,836.00
2022-08-31T01:32:53.506Z,835.00
2022-08-31T01:33:55.239Z,835.00
2022-08-31T01:34:54.890Z,830.00
2022-08-31T01:35:56.693Z,841.00
2022-08-31T01:36:57.551Z,841.00
2022-08-31T01:37:58.359Z,842.00
2022-08-31T01:38:57.367Z,843.00
2022-08-31T01:39:59.199Z,845.00
2022-08-31T01:40:58.630Z,846.00
2022-08-31T01:41:07.327Z,846.00
2022-08-31T01:42:09.031Z,847.00
2022-08-31T01:43:10.136Z,847.00
2022-08-31T01:44:09.039Z,848.00
2022-08-31T01:45:10.729Z,846.00
2022-08-31T01:46:11.449Z,844.00
2022-08-31T01:47:11.459Z,842.00
2022-08-31T01:48:12.028Z,842.00
2022-08-31T01:49:14.044Z,845.00
2022-08-31T01:50:14.698Z,848.00
2022-08-31T01:51:14.948Z,848.00
2022-08-31T01:52:15.915Z,847.00
2022-08-31T01:53:17.109Z,846.00
2022-08-31T01:54:16.839Z,845.00
2022-08-31T01:55:18.706Z,846.00
2022-08-31T01:56:19.209Z,846.00
2022-08-31T01:57:19.858Z,843.00
2022-08-31T01:58:19.302Z,843.00
2022-08-31T01:59:20.805Z,842.00
2022-08-31T02:00:21.174Z,842.00
2022-08-31T02:00:29.935Z,842.00
2022-08-31T02:01:33.626Z,841.00
2022-08-31T02:02:30.877Z,841.00
2022-08-31T02:03:30.956Z,841.00
2022-08-31T02:04:32.830Z,841.00
2022-08-31T02:05:33.661Z,706.00
2022-08-31T02:06:34.609Z,845.00
2022-08-31T02:07:35.554Z,832.00
2022-08-31T02:08:36.390Z,845.00
2022-08-31T02:09:35.735Z,842.00
2022-08-31T02:10:37.100Z,706.00
2022-08-31T02:11:37.075Z,840.00
2022-08-31T02:12:37.581Z,838.00
2022-08-31T02:13:38.619Z,838.00
2022-08-31T02:14:38.168Z,837.00
2022-08-31T02:15:39.765Z,837.00
2022-08-31T02:16:40.447Z,836.00
2022-08-31T02:17:39.836Z,835.00
2022-08-31T02:18:40.509Z,835.00
2022-08-31T02:19:41.605Z,837.00
2022-08-31T02:20:41.872Z,821.00
2022-08-31T02:21:42.432Z,841.00
2022-08-31T02:21:51.086Z,842.00
2022-08-31T02:22:51.137Z,842.00
2022-08-31T02:23:53.105Z,842.00
2022-08-31T02:24:53.095Z,840.00
2022-08-31T02:25:53.604Z,828.00
2022-08-31T02:26:54.092Z,837.00
2022-08-31T02:27:52.911Z,840.00
2022-08-31T02:28:53.354Z,842.00
2022-08-31T02:29:55.079Z,841.00
2022-08-31T02:30:56.114Z,841.00
2022-08-31T02:31:55.695Z,845.00
2022-08-31T02:32:57.501Z,842.00
2022-08-31T02:33:58.379Z,841.00
2022-08-31T02:34:59.036Z,841.00
2022-08-31T02:35:59.715Z,841.00
2022-08-31T02:37:00.328Z,842.00
2022-08-31T02:37:59.730Z,845.00
2022-08-31T02:39:01.240Z,834.00
2022-08-31T02:40:00.560Z,847.00
2022-08-31T02:41:00.921Z,849.00
2022-08-31T02:42:02.704Z,727.00
2022-08-31T02:42:11.438Z,850.00
2022-08-31T02:43:11.481Z,752.00
2022-08-31T02:44:12.110Z,733.00
2022-08-31T02:45:13.232Z,737.00
2022-08-31T02:46:12.977Z,727.00
2022-08-31T02:47:13.660Z,845.00
2022-08-31T02:48:15.267Z,845.00
2022-08-31T02:49:16.086Z,842.00
2022-08-31T02:50:15.081Z,843.00
2022-08-31T02:51:16.268Z,845.00
2022-08-31T02:52:16.330Z,846.00
2022-08-31T02:53:16.470Z,847.00
2022-08-31T02:54:16.330Z,848.00
2022-08-31T02:55:17.681Z,688.00
2022-08-31T02:56:17.136Z,735.00
2022-08-31T02:57:18.694Z,754.00
2022-08-31T02:58:23.864Z,735.00
2022-08-31T02:59:18.031Z,762.00
2022-08-31T03:00:19.564Z,733.00
2022-08-31T03:01:19.515Z,725.00
2022-08-31T03:02:20.455Z,770.00
2022-08-31T03:03:20.942Z,750.00
2022-08-31T03:04:21.894Z,728.00
2022-08-31T03:05:22.733Z,766.00
2022-08-31T03:05:31.375Z,754.00
2022-08-31T03:06:32.502Z,739.00
2022-08-31T03:07:32.662Z,732.00
2022-08-31T03:08:32.990Z,722.00
2022-08-31T03:09:33.469Z,732.00
2022-08-31T03:10:33.890Z,763.00
2022-08-31T03:11:34.425Z,734.00
2022-08-31T03:12:34.946Z,787.00
2022-08-31T03:13:35.531Z,747.00
2022-08-31T03:14:36.185Z,744.00
2022-08-31T03:15:35.595Z,738.00
2022-08-31T03:16:35.821Z,740.00
2022-08-31T03:17:37.183Z,735.00
2022-08-31T03:18:37.847Z,746.00
2022-08-31T03:19:38.367Z,738.00
2022-08-31T03:20:38.621Z,753.00
2022-08-31T03:21:39.207Z,814.00
2022-08-31T03:22:38.494Z,721.00
2022-08-31T03:23:38.974Z,726.00
2022-08-31T03:24:40.966Z,744.00
2022-08-31T03:25:41.645Z,728.00
2022-08-31T03:25:50.296Z,723.00
2022-08-31T03:26:51.723Z,780.00
2022-08-31T03:27:52.499Z,732.00
2022-08-31T03:28:53.082Z,735.00
2022-08-31T03:29:53.614Z,721.00
2022-08-31T03:30:54.460Z,728.00
2022-08-31T03:31:54.185Z,745.00
2022-08-31T03:32:57.289Z,728.00
2022-08-31T03:33:55.362Z,720.00
2022-08-31T03:34:57.035Z,726.00
2022-08-31T03:35:57.093Z,724.00
2022-08-31T03:36:57.686Z,720.00
2022-08-31T03:37:58.145Z,684.00
2022-08-31T03:38:58.725Z,718.00
2022-08-31T03:39:59.334Z,716.00
2022-08-31T03:40:58.735Z,725.00
2022-08-31T03:42:00.155Z,710.00
2022-08-31T03:43:00.520Z,843.00
2022-08-31T03:44:01.135Z,693.00
2022-08-31T03:45:00.943Z,730.00
2022-08-31T03:46:02.738Z,725.00
2022-08-31T03:46:11.937Z,718.00
2022-08-31T03:47:11.697Z,739.00
2022-08-31T03:48:13.067Z,708.00
2022-08-31T03:49:13.091Z,744.00
2022-08-31T03:50:14.476Z,735.00
2022-08-31T03:51:14.779Z,717.00
2022-08-31T03:52:15.218Z,648.00
2022-08-31T03:53:19.201Z,713.00
2022-08-31T03:54:15.137Z,843.00
2022-08-31T03:55:16.883Z,841.00
2022-08-31T03:56:17.259Z,841.00
2022-08-31T03:57:17.758Z,841.00
2022-08-31T03:58:18.138Z,838.00
2022-08-31T03:59:17.412Z,840.00
2022-08-31T04:00:18.263Z,840.00
2022-08-31T04:01:19.458Z,838.00
2022-08-31T04:02:18.531Z,836.00
2022-08-31T04:03:19.374Z,836.00
2022-08-31T04:04:19.655Z,836.00
2022-08-31T04:05:20.773Z,825.00
2022-08-31T04:06:21.345Z,835.00
2022-08-31T04:07:21.607Z,836.00
2022-08-31T04:08:21.789Z,836.00
2022-08-31T04:08:30.433Z,838.00
2022-08-31T04:09:31.641Z,840.00
2022-08-31T04:10:32.178Z,840.00
2022-08-31T04:11:44.461Z,840.00
2022-08-31T04:12:32.152Z,838.00
2022-08-31T04:13:33.359Z,837.00
2022-08-31T04:14:33.082Z,836.00
2022-08-31T04:15:33.708Z,836.00
2022-08-31T04:16:33.809Z,835.00
2022-08-31T04:17:35.233Z,834.00
2022-08-31T04:18:35.419Z,836.00
2022-08-31T04:19:35.594Z,836.00
2022-08-31T04:20:36.034Z,835.00
2022-08-31T04:21:36.085Z,835.00
2022-08-31T04:22:35.132Z,834.00
2022-08-31T04:23:36.700Z,824.00
2022-08-31T04:24:36.405Z,834.00
2022-08-31T04:25:37.505Z,835.00
2022-08-31T04:26:38.173Z,836.00
2022-08-31T04:27:38.650Z,837.00
2022-08-31T04:27:47.335Z,837.00
2022-08-31T04:28:47.385Z,836.00
2022-08-31T04:29:49.255Z,835.00
2022-08-31T04:30:50.056Z,836.00
2022-08-31T04:31:49.364Z,835.00
2022-08-31T04:32:51.030Z,835.00
2022-08-31T04:33:51.603Z,836.00
2022-08-31T04:34:56.336Z,836.00
2022-08-31T04:35:51.805Z,837.00
2022-08-31T04:36:53.730Z,838.00
2022-08-31T04:37:53.654Z,837.00
2022-08-31T04:38:54.973Z,836.00
2022-08-31T04:39:55.181Z,838.00
2022-08-31T04:40:54.589Z,836.00
2022-08-31T04:41:56.390Z,835.00
2022-08-31T04:42:56.206Z,835.00
2022-08-31T04:43:57.407Z,835.00
2022-08-31T04:44:57.787Z,835.00
2022-08-31T04:45:58.154Z,835.00
2022-08-31T04:46:57.079Z,834.00
2022-08-31T04:47:58.380Z,836.00
2022-08-31T04:48:07.016Z,835.00
2022-08-31T04:49:08.769Z,834.00
2022-08-31T04:50:09.369Z,834.00
2022-08-31T04:51:08.350Z,835.00
2022-08-31T04:52:10.130Z,838.00
2022-08-31T04:53:10.177Z,841.00
2022-08-31T04:54:10.542Z,840.00
2022-08-31T04:55:11.320Z,840.00
2022-08-31T04:56:11.443Z,838.00
2022-08-31T04:57:11.239Z,836.00
2022-08-31T04:58:12.579Z,836.00
2022-08-31T04:59:13.224Z,836.00
2022-08-31T05:00:13.473Z,826.00
2022-08-31T05:01:12.885Z,836.00
2022-08-31T05:02:13.268Z,835.00
2022-08-31T05:03:13.451Z,835.00
2022-08-31T05:04:14.190Z,834.00
2022-08-31T05:05:16.167Z,834.00
2022-08-31T05:06:16.889Z,835.00
2022-08-31T05:07:17.465Z,834.00
2022-08-31T05:08:18.179Z,835.00
2022-08-31T05:08:26.834Z,835.00
2022-08-31T05:09:28.256Z,835.00
2022-08-31T05:10:28.462Z,838.00
2022-08-31T05:11:29.102Z,845.00
2022-08-31T05:12:29.497Z,845.00
2022-08-31T05:13:29.825Z,847.00
2022-08-31T05:14:30.300Z,847.00
2022-08-31T05:15:30.720Z,847.00
2022-08-31T05:16:30.022Z,845.00
2022-08-31T05:17:30.043Z,846.00
2022-08-31T05:18:31.303Z,833.00
2022-08-31T05:19:31.763Z,842.00
2022-08-31T05:20:31.295Z,842.00
2022-08-31T05:21:31.937Z,841.00
2022-08-31T05:22:33.307Z,841.00
2022-08-31T05:23:33.640Z,840.00
2022-08-31T05:24:33.674Z,841.00
2022-08-31T05:25:34.261Z,841.00
2022-08-31T05:26:34.699Z,840.00
2022-08-31T05:27:33.834Z,840.00
2022-08-31T05:28:34.994Z,841.00
2022-08-31T05:28:43.647Z,840.00
2022-08-31T05:29:45.386Z,840.00
2022-08-31T05:30:44.570Z,843.00
2022-08-31T05:31:48.038Z,846.00
2022-08-31T05:32:45.887Z,842.00
2022-08-31T05:33:47.376Z,841.00
2022-08-31T05:34:47.642Z,840.00
2022-08-31T05:35:46.815Z,838.00
2022-08-31T05:36:48.005Z,840.00
2022-08-31T05:37:47.311Z,840.00
2022-08-31T05:38:48.582Z,837.00
2022-08-31T05:39:49.147Z,837.00
2022-08-31T05:40:48.490Z,838.00
2022-08-31T05:41:48.860Z,842.00
2022-08-31T05:42:49.271Z,842.00
2022-08-31T05:43:50.532Z,841.00
2022-08-31T05:44:51.197Z,841.00
2022-08-31T05:45:50.824Z,842.00
2022-08-31T05:46:57.503Z,842.00
2022-08-31T05:47:52.284Z,845.00
2022-08-31T05:48:53.792Z,848.00
2022-08-31T05:49:53.268Z,841.00
2022-08-31T05:50:55.120Z,847.00
2022-08-31T05:51:54.601Z,846.00
2022-08-31T05:52:03.305Z,846.00
2022-08-31T05:53:04.588Z,846.00
2022-08-31T05:54:04.952Z,847.00
2022-08-31T05:55:05.292Z,846.00
2022-08-31T05:56:05.530Z,843.00
2022-08-31T05:57:06.394Z,843.00
2022-08-31T05:58:06.798Z,842.00
2022-08-31T05:59:07.094Z,842.00
2022-08-31T06:00:07.589Z,842.00
2022-08-31T06:01:07.755Z,843.00
2022-08-31T06:02:07.024Z,845.00
2022-08-31T06:03:07.211Z,844.00
2022-08-31T06:04:08.540Z,842.00
2022-08-31T06:05:09.099Z,841.00
2022-08-31T06:06:08.227Z,841.00
2022-08-31T06:07:09.961Z,841.00
2022-08-31T06:08:15.096Z,841.00
2022-08-31T06:09:09.808Z,845.00
2022-08-31T06:10:11.142Z,845.00
2022-08-31T06:11:11.888Z,843.00
2022-08-31T06:12:12.264Z,842.00
2022-08-31T06:12:20.932Z,842.00
2022-08-31T06:13:22.247Z,842.00
2022-08-31T06:14:22.345Z,843.00
2022-08-31T06:15:21.864Z,846.00
2022-08-31T06:16:22.249Z,846.00
2022-08-31T06:17:23.119Z,836.00
2022-08-31T06:18:24.673Z,846.00
2022-08-31T06:19:25.608Z,843.00
2022-08-31T06:20:24.996Z,845.00
2022-08-31T06:21:25.374Z,845.00
2022-08-31T06:22:26.816Z,845.00
2022-08-31T06:23:27.213Z,845.00
2022-08-31T06:24:27.325Z,844.00
2022-08-31T06:25:27.605Z,842.00
2022-08-31T06:26:26.998Z,845.00
2022-08-31T06:27:28.452Z,841.00
2022-08-31T06:28:28.702Z,844.00
2022-08-31T06:29:29.055Z,842.00
2022-08-31T06:30:29.348Z,842.00
2022-08-31T06:31:28.905Z,842.00
2022-08-31T06:32:29.311Z,841.00
2022-08-31T06:33:30.678Z,840.00
2022-08-31T06:33:41.940Z,831.00
2022-08-31T06:34:43.179Z,840.00
2022-08-31T06:35:43.970Z,840.00
2022-08-31T06:36:43.404Z,841.00
2022-08-31T06:37:44.451Z,841.00
2022-08-31T06:38:43.692Z,838.00
2022-08-31T06:39:45.319Z,836.00
2022-08-31T06:40:44.989Z,836.00
2022-08-31T06:41:45.376Z,835.00
2022-08-31T06:42:46.767Z,826.00
2022-08-31T06:43:46.896Z,836.00
2022-08-31T06:44:47.320Z,830.00
2022-08-31T06:45:47.837Z,840.00
2022-08-31T06:46:47.748Z,841.00
2022-08-31T06:47:47.502Z,841.00
2022-08-31T06:48:49.311Z,841.00
2022-08-31T06:49:48.365Z,838.00
2022-08-31T06:50:48.989Z,840.00
2022-08-31T06:51:49.656Z,841.00
2022-08-31T06:52:50.208Z,836.00
2022-08-31T06:53:51.835Z,836.00
2022-08-31T06:54:52.260Z,836.00
2022-08-31T06:55:52.843Z,836.00
2022-08-31T06:56:01.465Z,835.00
2022-08-31T06:57:03.059Z,835.00
2022-08-31T06:58:03.013Z,836.00
2022-08-31T06:59:04.794Z,836.00
2022-08-31T07:00:05.705Z,836.00
2022-08-31T07:01:05.518Z,835.00
2022-08-31T07:02:05.940Z,834.00
2022-08-31T07:03:06.711Z,822.00
2022-08-31T07:04:08.310Z,835.00
2022-08-31T07:05:11.532Z,834.00
2022-08-31T07:06:08.793Z,834.00
2022-08-31T07:07:10.274Z,835.00
2022-08-31T07:08:10.077Z,834.00
2022-08-31T07:09:10.308Z,834.00
2022-08-31T07:10:10.947Z,834.00
2022-08-31T07:11:12.206Z,834.00
2022-08-31T07:12:12.528Z,833.00
2022-08-31T07:13:13.452Z,832.00
2022-08-31T07:14:13.352Z,832.00
2022-08-31T07:15:14.127Z,832.00
2022-08-31T07:16:16.035Z,832.00
2022-08-31T07:17:15.392Z,832.00
2022-08-31T07:17:24.015Z,832.00
2022-08-31T07:18:25.692Z,832.00
2022-08-31T07:19:25.025Z,832.00
2022-08-31T07:20:25.036Z,833.00
2022-08-31T07:21:26.695Z,823.00
2022-08-31T07:22:27.689Z,833.00
2022-08-31T07:23:28.422Z,833.00
2022-08-31T07:24:28.216Z,823.00
2022-08-31T07:25:29.492Z,822.00
2022-08-31T07:26:34.502Z,799.00
2022-08-31T07:27:29.074Z,832.00
2022-08-31T07:28:30.441Z,832.00
2022-08-31T07:29:31.077Z,822.00
2022-08-31T07:30:33.368Z,832.00
2022-08-31T07:31:30.761Z,832.00
2022-08-31T07:32:32.141Z,832.00
2022-08-31T07:33:32.542Z,824.00
2022-08-31T07:34:31.675Z,832.00
2022-08-31T07:35:32.964Z,832.00
2022-08-31T07:36:33.616Z,832.00
2022-08-31T07:37:34.079Z,832.00
2022-08-31T07:38:33.760Z,832.00
2022-08-31T07:38:42.388Z,832.00
2022-08-31T07:39:43.830Z,822.00
2022-08-31T07:40:43.304Z,831.00
2022-08-31T07:41:43.795Z,822.00
2022-08-31T07:42:44.434Z,822.00
2022-08-31T07:43:44.947Z,831.00
2022-08-31T07:44:53.090Z,831.00
2022-08-31T07:45:45.602Z,831.00
2022-08-31T07:46:45.937Z,831.00
2022-08-31T07:47:46.600Z,830.00
2022-08-31T07:48:48.052Z,831.00
2022-08-31T07:49:47.398Z,830.00
2022-08-31T07:50:48.658Z,829.00
2022-08-31T07:51:49.022Z,831.00
2022-08-31T07:52:48.358Z,819.00
2022-08-31T07:53:49.800Z,829.00
2022-08-31T07:54:50.177Z,829.00
2022-08-31T07:55:50.364Z,828.00
2022-08-31T07:56:50.919Z,826.00
2022-08-31T07:57:50.301Z,826.00
2022-08-31T07:58:52.867Z,825.00
2022-08-31T07:59:52.436Z,825.00
2022-08-31T08:00:01.056Z,825.00
2022-08-31T08:01:02.943Z,824.00
2022-08-31T08:02:02.327Z,824.00
2022-08-31T08:03:03.140Z,824.00
2022-08-31T08:04:03.870Z,824.00
2022-08-31T08:05:04.430Z,824.00
2022-08-31T08:06:05.283Z,824.00
2022-08-31T08:07:06.218Z,824.00
2022-08-31T08:08:13.608Z,740.00
2022-08-31T08:09:24.171Z,722.00
2022-08-31T08:10:08.205Z,726.00
2022-08-31T08:11:08.497Z,725.00
2022-08-31T08:12:09.188Z,730.00
2022-08-31T08:13:09.392Z,726.00
2022-08-31T08:14:10.699Z,746.00
2022-08-31T08:15:11.120Z,741.00
2022-08-31T08:16:10.880Z,738.00
2022-08-31T08:17:11.261Z,739.00
2022-08-31T08:18:12.619Z,739.00
2022-08-31T08:19:12.109Z,728.00
2022-08-31T08:20:14.140Z,721.00
2022-08-31T08:21:13.870Z,727.00
2022-08-31T08:22:30.610Z,693.00
2022-08-31T08:23:15.104Z,727.00
2022-08-31T08:24:15.606Z,727.00
2022-08-31T08:25:16.537Z,713.00
2022-08-31T08:26:22.037Z,721.00
2022-08-31T08:26:24.879Z,720.00
2022-08-31T08:27:25.553Z,721.00
2022-08-31T08:28:41.476Z,709.00
2022-08-31T08:29:26.222Z,712.00
2022-08-31T08:30:26.604Z,729.00
2022-08-31T08:31:28.093Z,730.00
2022-08-31T08:32:27.590Z,682.00
2022-08-31T08:33:29.130Z,722.00
2022-08-31T08:34:31.629Z,696.00
2022-08-31T08:35:29.109Z,713.00
2022-08-31T08:36:30.538Z,715.00
2022-08-31T08:37:56.696Z,694.00
2022-08-31T08:38:30.483Z,727.00
2022-08-31T08:39:31.246Z,710.00
2022-08-31T08:40:31.595Z,721.00
2022-08-31T08:41:32.391Z,673.00
2022-08-31T08:42:33.803Z,720.00
2022-08-31T08:43:33.971Z,712.00
2022-08-31T08:44:33.994Z,709.00
2022-08-31T08:45:34.201Z,702.00
2022-08-31T08:46:35.520Z,720.00
2022-08-31T08:47:38.036Z,799.00
2022-08-31T08:47:42.564Z,748.00
2022-08-31T08:48:43.281Z,714.00
2022-08-31T08:49:43.697Z,706.00
2022-08-31T08:50:44.812Z,747.00
2022-08-31T08:51:44.616Z,701.00
2022-08-31T08:52:45.058Z,696.00
2022-08-31T08:53:46.848Z,712.00
2022-08-31T08:54:45.862Z,692.00
2022-08-31T08:55:46.582Z,715.00
2022-08-31T08:56:48.196Z,722.00
2022-08-31T08:57:48.581Z,703.00
2022-08-31T08:58:49.526Z,702.00
2022-08-31T08:59:49.722Z,811.00
2022-08-31T09:00:50.023Z,717.00
2022-08-31T09:01:50.707Z,725.00
2022-08-31T09:02:50.006Z,729.00
2022-08-31T09:03:50.440Z,727.00
2022-08-31T09:04:51.608Z,716.00
2022-08-31T09:05:52.323Z,725.00
2022-08-31T09:06:54.347Z,806.00
2022-08-31T09:07:52.287Z,811.00
2022-08-31T09:08:53.567Z,810.00
2022-08-31T09:09:54.124Z,811.00
2022-08-31T09:10:05.735Z,810.00
2022-08-31T09:11:07.390Z,810.00
2022-08-31T09:12:12.575Z,808.00
2022-08-31T09:13:07.467Z,808.00
2022-08-31T09:14:08.939Z,810.00
2022-08-31T09:15:09.105Z,807.00
2022-08-31T09:16:09.515Z,807.00
2022-08-31T09:17:09.190Z,807.00
2022-08-31T09:18:10.867Z,806.00
2022-08-31T09:19:11.681Z,749.00
2022-08-31T09:20:12.038Z,720.00
2022-08-31T09:21:12.462Z,720.00
2022-08-31T09:22:12.629Z,717.00
2022-08-31T09:23:12.888Z,709.00
2022-08-31T09:24:13.130Z,712.00
2022-08-31T09:25:12.665Z,709.00
2022-08-31T09:26:14.475Z,694.00
2022-08-31T09:27:15.091Z,713.00
2022-08-31T09:27:23.707Z,691.00
2022-08-31T09:28:26.053Z,706.00
2022-08-31T09:29:24.673Z,711.00
2022-08-31T09:30:25.555Z,724.00
2022-08-31T09:31:27.024Z,727.00
2022-08-31T09:32:26.647Z,720.00
2022-08-31T09:33:28.293Z,705.00
2022-08-31T09:34:27.627Z,694.00
2022-08-31T09:35:29.104Z,699.00
2022-08-31T09:36:29.127Z,692.00
2022-08-31T09:37:29.309Z,693.00
2022-08-31T09:38:29.074Z,715.00
2022-08-31T09:39:33.041Z,715.00
2022-08-31T09:40:30.510Z,692.00
2022-08-31T09:41:31.128Z,822.00
2022-08-31T09:42:33.811Z,823.00
2022-08-31T09:43:32.140Z,821.00
2022-08-31T09:44:32.680Z,821.00
2022-08-31T09:45:32.902Z,820.00
2022-08-31T09:46:32.970Z,818.00
2022-08-31T09:47:34.588Z,820.00
2022-08-31T09:48:33.800Z,820.00
2022-08-31T09:49:35.718Z,819.00
2022-08-31T09:49:44.339Z,820.00
2022-08-31T09:50:44.909Z,732.00
2022-08-31T09:51:45.169Z,758.00
2022-08-31T09:52:46.613Z,724.00
2022-08-31T09:53:47.270Z,726.00
2022-08-31T09:54:47.434Z,715.00
2022-08-31T09:55:47.490Z,715.00
2022-08-31T09:56:48.716Z,715.00
2022-08-31T09:57:48.734Z,733.00
2022-08-31T09:58:48.954Z,725.00
2022-08-31T09:59:49.819Z,720.00
2022-08-31T10:00:50.501Z,712.00
2022-08-31T10:01:50.601Z,726.00
2022-08-31T10:02:50.076Z,715.00
2022-08-31T10:03:50.479Z,718.00
2022-08-31T10:04:51.956Z,713.00
2022-08-31T10:05:51.545Z,727.00
2022-08-31T10:06:52.021Z,712.00
2022-08-31T10:07:53.369Z,696.00
2022-08-31T10:08:54.183Z,722.00
2022-08-31T10:09:57.851Z,708.00
2022-08-31T10:10:54.045Z,716.00
2022-08-31T10:11:02.692Z,694.00
2022-08-31T10:12:04.369Z,701.00
2022-08-31T10:13:04.678Z,703.00
2022-08-31T10:14:05.378Z,679.00
2022-08-31T10:15:05.737Z,711.00
2022-08-31T10:16:06.232Z,721.00
2022-08-31T10:17:05.612Z,711.00
2022-08-31T10:18:07.275Z,718.00
2022-08-31T10:19:07.830Z,723.00
2022-08-31T10:20:08.515Z,725.00
2022-08-31T10:21:09.182Z,725.00
2022-08-31T10:22:09.685Z,729.00
2022-08-31T10:23:10.005Z,721.00
2022-08-31T10:24:10.287Z,722.00
2022-08-31T10:25:10.933Z,733.00
2022-08-31T10:26:11.042Z,725.00
2022-08-31T10:27:11.094Z,735.00
2022-08-31T10:28:11.224Z,722.00
2022-08-31T10:29:11.734Z,735.00
2022-08-31T10:30:11.487Z,730.00
2022-08-31T10:30:23.103Z,709.00
2022-08-31T10:31:24.814Z,714.00
2022-08-31T10:32:24.493Z,712.00
2022-08-31T10:33:25.942Z,726.00
2022-08-31T10:34:25.548Z,676.00
2022-08-31T10:35:27.558Z,736.00
2022-08-31T10:36:27.798Z,617.00
2022-08-31T10:37:28.180Z,730.00
2022-08-31T10:38:27.637Z,725.00
2022-08-31T10:39:28.910Z,729.00
2022-08-31T10:40:29.455Z,717.00
2022-08-31T10:41:28.707Z,730.00
2022-08-31T10:42:29.118Z,729.00
2022-08-31T10:43:31.827Z,720.00
2022-08-31T10:44:30.486Z,730.00
2022-08-31T10:45:31.182Z,720.00
2022-08-31T10:46:33.045Z,750.00
2022-08-31T10:47:34.243Z,729.00
2022-08-31T10:48:33.401Z,734.00
2022-08-31T10:49:34.573Z,734.00
2022-08-31T10:50:34.952Z,729.00
2022-08-31T10:51:35.640Z,720.00
2022-08-31T10:51:44.281Z,717.00
2022-08-31T10:52:45.609Z,694.00
2022-08-31T10:53:46.365Z,739.00
2022-08-31T10:54:45.989Z,725.00
2022-08-31T10:55:47.235Z,736.00
2022-08-31T10:56:47.474Z,739.00
2022-08-31T10:57:48.140Z,740.00
2022-08-31T10:58:48.558Z,738.00
2022-08-31T10:59:51.855Z,723.00
2022-08-31T11:00:47.964Z,716.00
2022-08-31T11:01:48.472Z,738.00
2022-08-31T11:02:49.314Z,720.00
2022-08-31T11:03:50.124Z,657.00
2022-08-31T11:04:50.767Z,727.00
2022-08-31T11:05:51.282Z,748.00
2022-08-31T11:06:51.336Z,739.00
2022-08-31T11:07:52.928Z,735.00
2022-08-31T11:08:53.424Z,721.00
2022-08-31T11:09:54.019Z,735.00
2022-08-31T11:10:54.467Z,739.00
2022-08-31T11:11:54.988Z,735.00
2022-08-31T11:12:03.632Z,744.00
2022-08-31T11:13:04.804Z,729.00
2022-08-31T11:14:05.124Z,787.00
2022-08-31T11:15:04.481Z,725.00
2022-08-31T11:16:06.412Z,735.00
2022-08-31T11:17:05.874Z,740.00
2022-08-31T11:18:06.302Z,732.00
2022-08-31T11:19:09.423Z,726.00
2022-08-31T11:20:06.837Z,722.00
2022-08-31T11:21:08.219Z,729.00
2022-08-31T11:22:08.720Z,727.00
2022-08-31T11:23:09.084Z,745.00
2022-08-31T11:24:10.072Z,725.00
2022-08-31T11:25:10.522Z,729.00
2022-08-31T11:26:11.116Z,715.00
2022-08-31T11:27:10.764Z,750.00
2022-08-31T11:28:12.559Z,712.00
2022-08-31T11:29:12.952Z,735.00
2022-08-31T11:30:13.202Z,738.00
2022-08-31T11:31:13.452Z,736.00
2022-08-31T11:32:12.839Z,717.00
2022-08-31T11:32:21.951Z,735.00
2022-08-31T11:33:22.248Z,739.00
2022-08-31T11:34:23.919Z,726.00
2022-08-31T11:35:23.551Z,745.00
2022-08-31T11:36:25.222Z,738.00
2022-08-31T11:37:25.654Z,734.00
2022-08-31T11:38:26.107Z,727.00
2022-08-31T11:39:26.539Z,738.00
2022-08-31T11:40:27.241Z,726.00
2022-08-31T11:41:26.810Z,722.00
2022-08-31T11:42:28.785Z,713.00
2022-08-31T11:43:29.535Z,739.00
2022-08-31T11:44:29.171Z,715.00
2022-08-31T11:45:29.795Z,716.00
2022-08-31T11:46:29.895Z,716.00
2022-08-31T11:47:29.948Z,715.00
2022-08-31T11:48:30.065Z,718.00
2022-08-31T11:49:31.536Z,694.00
2022-08-31T11:50:32.062Z,727.00
2022-08-31T11:51:31.719Z,725.00
2022-08-31T11:52:33.139Z,708.00
2022-08-31T11:53:32.449Z,756.00
2022-08-31T11:54:32.724Z,698.00
2022-08-31T11:55:34.451Z,718.00
2022-08-31T11:55:45.020Z,712.00
2022-08-31T11:56:46.151Z,717.00
2022-08-31T11:57:46.935Z,698.00
2022-08-31T11:58:47.454Z,710.00
2022-08-31T11:59:47.937Z,725.00
2022-08-31T12:00:48.800Z,692.00
2022-08-31T12:01:47.296Z,711.00
2022-08-31T12:02:49.399Z,710.00
2022-08-31T12:03:48.737Z,703.00
2022-08-31T12:04:49.220Z,714.00